createdAt,value
2018-06-03T00:00:31.445Z,91.60
2018-06-03T00:02:59.795Z,91.40
2018-06-03T00:05:28.593Z,90.80
2018-06-03T00:07:56.945Z,90.40
2018-06-03T00:10:25.269Z,90.60
2018-06-03T00:12:53.627Z,91.20
2018-06-03T00:15:21.963Z,91.90
2018-06-03T00:17:50.318Z,91.50
2018-06-03T00:20:28.654Z,91.70
2018-06-03T00:22:57.021Z,91.70
2018-06-03T00:25:25.358Z,92.00
2018-06-03T00:27:53.709Z,91.90
2018-06-03T00:30:22.281Z,91.90
2018-06-03T00:32:50.622Z,91.80
2018-06-03T00:35:18.955Z,91.40
2018-06-03T00:37:47.377Z,92.10
2018-06-03T00:40:15.706Z,92.40
2018-06-03T00:42:44.082Z,92.70
2018-06-03T00:47:40.707Z,92.60
2018-06-03T00:50:09.150Z,92.60
2018-06-03T00:52:37.598Z,92.60
2018-06-03T00:55:05.966Z,92.30
2018-06-03T00:57:34.330Z,92.00
2018-06-03T01:00:02.666Z,92.10
2018-06-03T01:02:31.018Z,91.80
2018-06-03T01:04:59.345Z,92.30
2018-06-03T01:07:27.690Z,92.70
2018-06-03T01:09:56.021Z,93.30
2018-06-03T01:12:24.365Z,94.00
2018-06-03T01:14:52.689Z,94.30
2018-06-03T01:17:21.014Z,94.50
2018-06-03T01:19:49.371Z,94.60
2018-06-03T01:22:17.750Z,94.10
2018-06-03T01:24:46.110Z,94.00
2018-06-03T01:27:14.437Z,94.40
2018-06-03T01:29:42.789Z,94.70
2018-06-03T01:32:11.122Z,95.00
2018-06-03T01:34:39.475Z,95.10
2018-06-03T01:37:07.845Z,95.30
2018-06-03T01:39:36.190Z,95.10
2018-06-03T01:42:04.648Z,95.10
2018-06-03T01:44:32.989Z,95.00
2018-06-03T01:47:01.332Z,95.10
2018-06-03T01:49:29.682Z,95.00
2018-06-03T01:51:58.006Z,94.40
2018-06-03T01:54:26.345Z,94.30
2018-06-03T01:56:54.683Z,94.80
2018-06-03T01:59:23.029Z,94.90
2018-06-03T02:01:51.362Z,94.50
2018-06-03T02:04:19.711Z,94.50
2018-06-03T02:06:48.040Z,94.60
2018-06-03T02:09:16.382Z,94.40
2018-06-03T02:11:44.708Z,94.40
2018-06-03T02:14:13.063Z,94.30
2018-06-03T02:16:41.389Z,94.10
2018-06-03T02:19:09.770Z,93.80
2018-06-03T02:21:38.098Z,93.50
2018-06-03T02:24:06.469Z,93.20
2018-06-03T02:26:34.793Z,93.10
2018-06-03T02:29:03.173Z,94.10
2018-06-03T02:31:31.525Z,93.90
2018-06-03T02:33:59.866Z,94.80
2018-06-03T02:36:28.190Z,95.30
2018-06-03T02:38:56.542Z,95.10
2018-06-03T02:41:24.886Z,95.50
2018-06-03T02:43:53.238Z,95.00
2018-06-03T02:46:21.591Z,94.40
2018-06-03T02:48:49.930Z,95.30
2018-06-03T02:51:18.290Z,95.80
2018-06-03T02:53:46.627Z,96.10
2018-06-03T02:56:14.986Z,96.10
2018-06-03T02:58:43.363Z,95.70
2018-06-03T03:01:11.723Z,95.30
2018-06-03T03:03:40.150Z,95.40
2018-06-03T03:06:08.503Z,95.30
2018-06-03T03:08:36.842Z,95.30
2018-06-03T03:11:05.190Z,95.70
2018-06-03T03:13:33.518Z,95.60
2018-06-03T03:16:01.871Z,95.40
2018-06-03T03:18:30.211Z,95.50
2018-06-03T03:20:58.554Z,95.30
2018-06-03T03:23:26.886Z,95.20
2018-06-03T03:25:55.238Z,95.10
2018-06-03T03:28:23.654Z,95.30
2018-06-03T03:30:52.594Z,95.00
2018-06-03T03:33:20.926Z,94.40
2018-06-03T03:35:49.276Z,94.60
2018-06-03T03:38:17.597Z,94.50
2018-06-03T03:40:45.982Z,94.30
2018-06-03T03:43:16.420Z,94.50
2018-06-03T03:45:44.761Z,94.90
2018-06-03T03:48:13.089Z,94.90
2018-06-03T03:53:09.514Z,95.00
2018-06-03T03:55:37.858Z,95.10
2018-06-03T03:58:06.195Z,94.80
2018-06-03T04:00:34.551Z,94.30
2018-06-03T04:03:02.877Z,93.40
2018-06-03T04:05:31.214Z,94.00
2018-06-03T04:07:59.537Z,94.30
2018-06-03T04:10:27.877Z,95.30
2018-06-03T04:12:56.206Z,95.30
2018-06-03T04:15:24.545Z,95.50
2018-06-03T04:17:52.947Z,94.70
2018-06-03T04:20:21.274Z,93.80
2018-06-03T04:22:49.642Z,93.50
2018-06-03T04:25:17.973Z,93.70
2018-06-03T04:27:46.344Z,93.80
2018-06-03T04:30:14.673Z,93.80
2018-06-03T04:32:43.031Z,94.50
2018-06-03T04:35:11.358Z,95.20
2018-06-03T04:37:39.733Z,95.50
2018-06-03T04:40:08.054Z,95.40
2018-06-03T04:42:36.526Z,95.80
2018-06-03T04:45:04.858Z,95.80
2018-06-03T04:47:33.206Z,96.00
2018-06-03T04:50:01.533Z,96.30
2018-06-03T04:52:29.905Z,96.50
2018-06-03T04:54:58.249Z,96.50
2018-06-03T04:57:26.602Z,96.40
2018-06-03T04:59:54.925Z,95.60
2018-06-03T05:02:23.286Z,95.80
2018-06-03T05:04:51.616Z,95.40
2018-06-03T05:07:19.971Z,94.90
2018-06-03T05:09:48.307Z,94.60
2018-06-03T05:12:16.653Z,94.20
2018-06-03T05:14:44.991Z,94.10
2018-06-03T05:17:13.325Z,94.20
2018-06-03T05:19:41.653Z,94.30
2018-06-03T05:22:10.010Z,94.40
2018-06-03T05:24:38.372Z,94.30
2018-06-03T05:27:06.712Z,94.50
2018-06-03T05:29:35.049Z,94.80
2018-06-03T05:32:03.398Z,95.10
2018-06-03T05:34:31.734Z,95.10
2018-06-03T05:37:00.105Z,95.20
2018-06-03T05:39:28.436Z,95.00
2018-06-03T05:41:56.801Z,94.30
2018-06-03T05:44:25.137Z,94.00
2018-06-03T05:46:53.486Z,93.90
2018-06-03T05:49:21.809Z,93.00
2018-06-03T05:51:50.132Z,92.70
2018-06-03T05:54:18.470Z,92.20
2018-06-03T05:56:46.794Z,91.50
2018-06-03T05:59:15.141Z,91.00
2018-06-03T06:01:43.471Z,89.50
2018-06-03T06:04:11.818Z,89.40
2018-06-03T06:06:40.161Z,89.40
2018-06-03T06:09:08.546Z,88.90
2018-06-03T06:11:36.864Z,88.40
2018-06-03T06:14:05.241Z,87.80
2018-06-03T06:16:33.561Z,88.20
2018-06-03T06:19:01.918Z,86.60
2018-06-03T06:21:30.284Z,86.40
2018-06-03T06:23:58.782Z,84.90
2018-06-03T06:26:27.115Z,83.20
2018-06-03T06:28:55.483Z,80.80
2018-06-03T06:31:23.821Z,80.60
2018-06-03T06:33:52.154Z,80.50
2018-06-03T06:36:20.524Z,80.20
2018-06-03T06:38:48.841Z,79.10
2018-06-03T06:41:17.263Z,77.20
2018-06-03T06:43:45.633Z,77.00
2018-06-03T06:46:13.957Z,75.40
2018-06-03T06:48:42.401Z,78.00
2018-06-03T06:51:10.731Z,78.10
2018-06-03T06:53:39.087Z,78.40
2018-06-03T06:56:07.422Z,78.30
2018-06-03T06:58:35.761Z,78.00
2018-06-03T07:01:04.085Z,77.60
2018-06-03T07:03:32.435Z,76.30
2018-06-03T07:06:00.763Z,76.70
2018-06-03T07:08:29.126Z,76.10
2018-06-03T07:10:57.445Z,78.00
2018-06-03T07:13:25.790Z,77.70
2018-06-03T07:15:54.109Z,77.70
2018-06-03T07:18:22.461Z,76.90
2018-06-03T07:20:50.786Z,77.80
2018-06-03T07:23:19.122Z,78.50
2018-06-03T07:25:47.472Z,78.20
2018-06-03T07:28:15.816Z,77.90
2018-06-03T07:30:44.169Z,77.50
2018-06-03T07:33:12.608Z,76.50
2018-06-03T07:35:40.977Z,76.50
2018-06-03T07:38:09.305Z,76.80
2018-06-03T07:40:37.649Z,75.50
2018-06-03T07:43:06.027Z,74.20
2018-06-03T07:45:34.425Z,76.30
2018-06-03T07:48:02.757Z,74.80
2018-06-03T07:50:31.107Z,75.20
2018-06-03T07:52:59.434Z,72.70
2018-06-03T07:55:27.779Z,71.30
2018-06-03T07:57:56.097Z,71.30
2018-06-03T08:00:24.439Z,72.40
2018-06-03T08:02:52.759Z,70.70
2018-06-03T08:05:21.107Z,71.10
2018-06-03T08:07:49.450Z,69.60
2018-06-03T08:10:17.790Z,70.40
2018-06-03T08:12:46.114Z,71.80
2018-06-03T08:15:14.476Z,71.60
2018-06-03T08:17:42.807Z,69.20
2018-06-03T08:20:11.197Z,71.50
2018-06-03T08:22:39.526Z,72.20
2018-06-03T08:25:07.862Z,72.30
2018-06-03T08:27:36.254Z,72.10
2018-06-03T08:30:05.097Z,71.30
2018-06-03T08:32:33.428Z,72.20
2018-06-03T08:35:01.778Z,72.30
2018-06-03T08:37:30.106Z,72.40
2018-06-03T08:39:58.455Z,74.20
2018-06-03T08:42:26.802Z,73.30
2018-06-03T08:44:55.147Z,72.50
2018-06-03T08:47:23.551Z,70.80
2018-06-03T08:49:51.898Z,71.10
2018-06-03T08:52:20.247Z,72.10
2018-06-03T08:54:48.577Z,70.80
2018-06-03T08:57:16.935Z,71.20
2018-06-03T08:59:45.262Z,72.30
2018-06-03T09:02:13.611Z,69.20
2018-06-03T09:04:41.931Z,70.00
2018-06-03T09:07:10.282Z,69.30
2018-06-03T09:09:38.609Z,68.50
2018-06-03T09:12:06.945Z,67.40
2018-06-03T09:14:35.271Z,66.50
2018-06-03T09:17:03.611Z,65.40
2018-06-03T09:19:31.934Z,66.20
2018-06-03T09:22:00.269Z,65.60
2018-06-03T09:24:28.593Z,65.90
2018-06-03T09:26:56.946Z,66.50
2018-06-03T09:29:25.274Z,65.50
2018-06-03T09:31:53.622Z,66.70
2018-06-03T09:34:21.950Z,66.60
2018-06-03T09:36:50.285Z,67.70
2018-06-03T09:39:18.618Z,67.60
2018-06-03T09:41:46.980Z,66.10
2018-06-03T09:44:15.825Z,66.50
2018-06-03T09:46:44.222Z,66.30
2018-06-03T09:49:12.549Z,66.70
2018-06-03T09:51:40.887Z,66.40
2018-06-03T09:54:09.215Z,67.10
2018-06-03T09:56:37.561Z,65.70
2018-06-03T09:59:05.906Z,65.70
2018-06-03T10:01:34.257Z,69.70
2018-06-03T10:04:02.602Z,70.40
2018-06-03T10:06:30.937Z,71.60
2018-06-03T10:08:59.266Z,70.80
2018-06-03T10:11:27.640Z,70.60
2018-06-03T10:13:55.968Z,70.60
2018-06-03T10:16:24.314Z,70.30
2018-06-03T10:18:52.651Z,70.10
2018-06-03T10:21:20.978Z,70.10
2018-06-03T10:23:49.341Z,70.20
2018-06-03T10:26:17.989Z,70.70
2018-06-03T10:28:46.350Z,69.70
2018-06-03T10:31:14.715Z,72.10
2018-06-03T10:33:43.124Z,70.20
2018-06-03T10:36:11.421Z,71.10
2018-06-03T10:38:39.926Z,69.50
2018-06-03T10:41:08.265Z,69.40
2018-06-03T10:43:36.606Z,70.30
2018-06-03T10:46:04.929Z,71.50
2018-06-03T10:48:33.266Z,70.80
2018-06-03T10:51:01.609Z,71.10
2018-06-03T10:53:29.953Z,71.00
2018-06-03T10:55:58.288Z,71.40
2018-06-03T10:58:26.639Z,70.70
2018-06-03T11:00:54.981Z,70.40
2018-06-03T11:03:23.318Z,72.20
2018-06-03T11:05:51.690Z,71.70
2018-06-03T11:08:20.058Z,71.60
2018-06-03T11:10:48.389Z,69.90
2018-06-03T11:13:16.739Z,70.00
2018-06-03T11:15:45.067Z,70.60
2018-06-03T11:18:13.438Z,69.60
2018-06-03T11:20:41.762Z,69.60
2018-06-03T11:23:10.101Z,69.30
2018-06-03T11:25:38.426Z,69.10
2018-06-03T11:28:06.778Z,69.10
2018-06-03T11:30:35.101Z,68.80
2018-06-03T11:33:03.542Z,69.30
2018-06-03T11:35:31.870Z,69.10
2018-06-03T11:38:00.236Z,67.80
2018-06-03T11:42:56.659Z,67.90
2018-06-03T11:45:25.019Z,68.80
2018-06-03T11:47:53.394Z,69.30
2018-06-03T11:50:21.741Z,69.20
2018-06-03T11:52:50.118Z,69.10
2018-06-03T11:55:25.078Z,69.00
2018-06-03T11:59:02.393Z,68.30
2018-06-03T12:01:30.734Z,67.60
2018-06-03T12:03:59.097Z,69.30
2018-06-03T12:06:27.433Z,68.80
2018-06-03T12:08:55.794Z,68.80
2018-06-03T12:11:24.139Z,69.30
2018-06-03T12:13:52.516Z,68.90
2018-06-03T12:16:20.861Z,69.50
2018-06-03T12:21:17.309Z,67.40
2018-06-03T12:23:45.674Z,67.30
2018-06-03T12:26:14.018Z,68.00
2018-06-03T12:28:42.431Z,67.80
2018-06-03T12:31:10.858Z,67.40
2018-06-03T12:33:39.194Z,68.70
2018-06-03T12:36:07.568Z,67.80
2018-06-03T12:38:35.904Z,67.70
2018-06-03T12:41:04.289Z,67.30
2018-06-03T12:43:32.662Z,66.90
2018-06-03T12:46:01.022Z,67.30
2018-06-03T12:48:29.349Z,67.10
2018-06-03T12:50:57.706Z,67.20
2018-06-03T12:53:26.041Z,66.00
2018-06-03T12:55:54.396Z,65.80
2018-06-03T12:58:22.736Z,66.60
2018-06-03T13:00:51.106Z,65.90
2018-06-03T13:03:19.535Z,65.40
2018-06-03T13:05:47.911Z,67.20
2018-06-03T13:08:16.247Z,66.00
2018-06-03T13:10:44.693Z,66.70
2018-06-03T13:13:13.111Z,65.60
2018-06-03T13:15:41.480Z,66.60
2018-06-03T13:18:09.849Z,67.30
2018-06-03T13:20:38.241Z,66.10
2018-06-03T13:23:06.573Z,65.40
2018-06-03T13:25:34.960Z,66.40
2018-06-03T13:28:03.295Z,66.60
2018-06-03T13:30:31.667Z,66.00
2018-06-03T13:33:00.022Z,65.90
